sensor_id;sensor_type;location;lat;lon;timestamp;temperature;humidity
23540;DHT22;11947;50.810;4.394;2023-03-20T00:00:34;7.10;99.90
23540;DHT22;11947;50.810;4.394;2023-03-20T00:03:00;7.10;99.90
23540;DHT22;11947;50.810;4.394;2023-03-20T00:05:27;7.00;99.90
23540;DHT22;11947;50.810;4.394;2023-03-20T00:07:54;7.30;99.90
23540;DHT22;11947;50.810;4.394;2023-03-20T00:10:26;7.20;99.90
23540;DHT22;11947;50.810;4.394;2023-03-20T00:12:53;7.00;99.90
23540;DHT22;11947;50.810;4.394;2023-03-20T00:17:51;6.90;99.90
23540;DHT22;11947;50.810;4.394;2023-03-20T00:20:17;6.90;99.90
23540;DHT22;11947;50.810;4.394;2023-03-20T00:22:44;7.00;99.90
23540;DHT22;11947;50.810;4.394;2023-03-20T00:25:18;6.90;99.90
23540;DHT22;11947;50.810;4.394;2023-03-20T00:27:44;6.90;99.90
23540;DHT22;11947;50.810;4.394;2023-03-20T00:30:39;7.00;99.90
23540;DHT22;11947;50.810;4.394;2023-03-20T00:33:07;6.80;99.90
23540;DHT22;11947;50.810;4.394;2023-03-20T00:35:33;6.80;99.90
23540;DHT22;11947;50.810;4.394;2023-03-20T00:37:59;7.00;99.90
23540;DHT22;11947;50.810;4.394;2023-03-20T00:40:30;6.80;99.90
23540;DHT22;11947;50.810;4.394;2023-03-20T00:43:01;6.90;99.90
23540;DHT22;11947;50.810;4.394;2023-03-20T00:45:29;7.00;99.90
23540;DHT22;11947;50.810;4.394;2023-03-20T00:47:56;7.00;99.90
23540;DHT22;11947;50.810;4.394;2023-03-20T00:50:29;7.00;99.90
23540;DHT22;11947;50.810;4.394;2023-03-20T00:52:56;7.20;99.90
23540;DHT22;11947;50.810;4.394;2023-03-20T00:55:25;7.20;99.90
23540;DHT22;11947;50.810;4.394;2023-03-20T00:57:54;7.30;99.90
23540;DHT22;11947;50.810;4.394;2023-03-20T01:00:25;7.30;99.90
23540;DHT22;11947;50.810;4.394;2023-03-20T01:02:54;7.40;99.90
23540;DHT22;11947;50.810;4.394;2023-03-20T01:05:20;7.50;99.90
23540;DHT22;11947;50.810;4.394;2023-03-20T01:07:46;7.60;99.90
23540;DHT22;11947;50.810;4.394;2023-03-20T01:10:12;7.70;99.90
23540;DHT22;11947;50.810;4.394;2023-03-20T01:12:39;7.90;99.90
23540;DHT22;11947;50.810;4.394;2023-03-20T01:15:19;7.80;99.90
23540;DHT22;11947;50.810;4.394;2023-03-20T01:17:45;7.80;99.90
23540;DHT22;11947;50.810;4.394;2023-03-20T01:20:25;7.90;99.90
23540;DHT22;11947;50.810;4.394;2023-03-20T01:22:51;7.90;99.90
23540;DHT22;11947;50.810;4.394;2023-03-20T01:25:17;7.90;99.90
23540;DHT22;11947;50.810;4.394;2023-03-20T01:27:46;7.90;99.90
23540;DHT22;11947;50.810;4.394;2023-03-20T01:30:19;8.00;99.90
23540;DHT22;11947;50.810;4.394;2023-03-20T01:32:45;7.80;99.90
23540;DHT22;11947;50.810;4.394;2023-03-20T01:35:15;7.90;99.90
23540;DHT22;11947;50.810;4.394;2023-03-20T01:37:41;8.00;99.90
23540;DHT22;11947;50.810;4.394;2023-03-20T01:40:24;8.00;99.90
23540;DHT22;11947;50.810;4.394;2023-03-20T01:42:52;8.10;99.90
23540;DHT22;11947;50.810;4.394;2023-03-20T01:45:21;8.10;99.90
23540;DHT22;11947;50.810;4.394;2023-03-20T01:47:48;8.20;99.90
23540;DHT22;11947;50.810;4.394;2023-03-20T01:50:27;8.20;99.90
23540;DHT22;11947;50.810;4.394;2023-03-20T01:53:05;8.30;99.90
23540;DHT22;11947;50.810;4.394;2023-03-20T01:55:31;8.40;99.90
23540;DHT22;11947;50.810;4.394;2023-03-20T01:58:00;8.20;99.90
23540;DHT22;11947;50.810;4.394;2023-03-20T02:00:27;8.20;99.90
23540;DHT22;11947;50.810;4.394;2023-03-20T02:02:53;8.30;99.90
23540;DHT22;11947;50.810;4.394;2023-03-20T02:05:21;8.20;99.90
23540;DHT22;11947;50.810;4.394;2023-03-20T02:08:03;8.20;99.90
23540;DHT22;11947;50.810;4.394;2023-03-20T02:10:30;8.20;99.90
23540;DHT22;11947;50.810;4.394;2023-03-20T02:12:56;8.10;99.90
23540;DHT22;11947;50.810;4.394;2023-03-20T02:15:26;8.00;99.90
23540;DHT22;11947;50.810;4.394;2023-03-20T02:17:52;7.90;99.90
23540;DHT22;11947;50.810;4.394;2023-03-20T02:20:25;7.90;99.90
23540;DHT22;11947;50.810;4.394;2023-03-20T02:39:11;7.90;99.90
23540;DHT22;11947;50.810;4.394;2023-03-20T02:44:48;8.00;99.90
23540;DHT22;11947;50.810;4.394;2023-03-20T02:47:34;8.00;99.90
23540;DHT22;11947;50.810;4.394;2023-03-20T02:50:25;7.90;99.90
23540;DHT22;11947;50.810;4.394;2023-03-20T02:56:01;7.90;99.90
23540;DHT22;11947;50.810;4.394;2023-03-20T03:01:42;7.90;99.90
23540;DHT22;11947;50.810;4.394;2023-03-20T03:04:17;7.80;99.90
23540;DHT22;11947;50.810;4.394;2023-03-20T03:06:47;7.80;99.90
23540;DHT22;11947;50.810;4.394;2023-03-20T03:09:23;7.80;99.90
23540;DHT22;11947;50.810;4.394;2023-03-20T03:12:09;7.80;99.90
23540;DHT22;11947;50.810;4.394;2023-03-20T03:14:42;8.00;99.90
23540;DHT22;11947;50.810;4.394;2023-03-20T03:17:12;7.70;99.90
23540;DHT22;11947;50.810;4.394;2023-03-20T03:19:41;7.70;99.90
23540;DHT22;11947;50.810;4.394;2023-03-20T03:22:08;7.90;99.90
23540;DHT22;11947;50.810;4.394;2023-03-20T03:24:35;7.70;99.90
23540;DHT22;11947;50.810;4.394;2023-03-20T03:27:06;7.70;99.90
23540;DHT22;11947;50.810;4.394;2023-03-20T03:29:36;7.80;99.90
23540;DHT22;11947;50.810;4.394;2023-03-20T03:32:05;7.50;99.90
23540;DHT22;11947;50.810;4.394;2023-03-20T03:34:32;7.60;99.90
23540;DHT22;11947;50.810;4.394;2023-03-20T03:37:15;7.50;99.90
23540;DHT22;11947;50.810;4.394;2023-03-20T03:39:52;7.50;99.90
23540;DHT22;11947;50.810;4.394;2023-03-20T03:42:30;7.40;99.90
23540;DHT22;11947;50.810;4.394;2023-03-20T03:48:29;7.40;99.90
23540;DHT22;11947;50.810;4.394;2023-03-20T03:50:43;7.40;99.90
23540;DHT22;11947;50.810;4.394;2023-03-20T03:53:15;7.40;99.90
23540;DHT22;11947;50.810;4.394;2023-03-20T03:55:46;7.50;99.90
23540;DHT22;11947;50.810;4.394;2023-03-20T03:58:22;7.70;99.90
23540;DHT22;11947;50.810;4.394;2023-03-20T04:00:51;7.50;99.90
23540;DHT22;11947;50.810;4.394;2023-03-20T04:03:20;7.50;99.90
23540;DHT22;11947;50.810;4.394;2023-03-20T04:05:49;7.50;99.90
23540;DHT22;11947;50.810;4.394;2023-03-20T04:08:16;7.50;99.90
23540;DHT22;11947;50.810;4.394;2023-03-20T04:10:42;7.50;99.90
23540;DHT22;11947;50.810;4.394;2023-03-20T04:13:07;7.40;99.90
23540;DHT22;11947;50.810;4.394;2023-03-20T04:15:33;7.50;99.90
23540;DHT22;11947;50.810;4.394;2023-03-20T04:17:58;7.50;99.90
23540;DHT22;11947;50.810;4.394;2023-03-20T04:20:24;7.50;99.90
23540;DHT22;11947;50.810;4.394;2023-03-20T04:22:49;7.40;99.90
23540;DHT22;11947;50.810;4.394;2023-03-20T04:25:20;7.40;99.90
23540;DHT22;11947;50.810;4.394;2023-03-20T04:27:46;7.50;99.90
23540;DHT22;11947;50.810;4.394;2023-03-20T04:30:12;7.50;99.90
23540;DHT22;11947;50.810;4.394;2023-03-20T04:32:38;7.50;99.90
23540;DHT22;11947;50.810;4.394;2023-03-20T04:35:04;7.40;99.90
23540;DHT22;11947;50.810;4.394;2023-03-20T04:37:30;7.40;99.90
23540;DHT22;11947;50.810;4.394;2023-03-20T04:39:56;7.40;99.90
23540;DHT22;11947;50.810;4.394;2023-03-20T04:42:21;7.70;99.90
23540;DHT22;11947;50.810;4.394;2023-03-20T04:44:47;7.60;99.90
23540;DHT22;11947;50.810;4.394;2023-03-20T04:47:12;7.60;99.90
23540;DHT22;11947;50.810;4.394;2023-03-20T04:49:38;7.60;99.90
23540;DHT22;11947;50.810;4.394;2023-03-20T04:52:04;7.80;99.90
23540;DHT22;11947;50.810;4.394;2023-03-20T04:54:29;7.60;99.90
23540;DHT22;11947;50.810;4.394;2023-03-20T04:56:55;7.60;99.90
23540;DHT22;11947;50.810;4.394;2023-03-20T04:59:21;7.50;99.90
23540;DHT22;11947;50.810;4.394;2023-03-20T05:01:46;7.60;99.90
23540;DHT22;11947;50.810;4.394;2023-03-20T05:04:12;7.60;99.90
23540;DHT22;11947;50.810;4.394;2023-03-20T05:06:38;7.80;99.90
23540;DHT22;11947;50.810;4.394;2023-03-20T05:09:04;7.60;99.90
23540;DHT22;11947;50.810;4.394;2023-03-20T05:11:30;7.70;99.90
23540;DHT22;11947;50.810;4.394;2023-03-20T05:13:55;7.80;99.90
23540;DHT22;11947;50.810;4.394;2023-03-20T05:16:21;7.80;99.90
23540;DHT22;11947;50.810;4.394;2023-03-20T05:18:46;7.70;99.90
23540;DHT22;11947;50.810;4.394;2023-03-20T05:21:12;7.70;99.90
23540;DHT22;11947;50.810;4.394;2023-03-20T05:23:38;7.70;99.90
23540;DHT22;11947;50.810;4.394;2023-03-20T05:26:03;7.80;99.90
23540;DHT22;11947;50.810;4.394;2023-03-20T05:28:29;7.70;99.90
23540;DHT22;11947;50.810;4.394;2023-03-20T05:30:55;7.60;99.90
23540;DHT22;11947;50.810;4.394;2023-03-20T05:33:20;7.60;99.90
23540;DHT22;11947;50.810;4.394;2023-03-20T05:35:46;7.60;99.90
23540;DHT22;11947;50.810;4.394;2023-03-20T05:38:12;7.70;99.90
23540;DHT22;11947;50.810;4.394;2023-03-20T05:40:38;7.80;99.90
23540;DHT22;11947;50.810;4.394;2023-03-20T05:43:03;7.80;99.90
23540;DHT22;11947;50.810;4.394;2023-03-20T05:45:30;7.70;99.90
23540;DHT22;11947;50.810;4.394;2023-03-20T05:47:56;7.90;99.90
23540;DHT22;11947;50.810;4.394;2023-03-20T05:50:21;7.60;99.90
23540;DHT22;11947;50.810;4.394;2023-03-20T05:52:48;7.70;99.90
23540;DHT22;11947;50.810;4.394;2023-03-20T05:55:14;7.70;99.90
23540;DHT22;11947;50.810;4.394;2023-03-20T05:57:40;7.70;99.90
23540;DHT22;11947;50.810;4.394;2023-03-20T06:00:06;7.70;99.90
23540;DHT22;11947;50.810;4.394;2023-03-20T06:02:32;7.70;99.90
23540;DHT22;11947;50.810;4.394;2023-03-20T06:04:58;7.80;99.90
23540;DHT22;11947;50.810;4.394;2023-03-20T06:07:24;7.70;99.90
23540;DHT22;11947;50.810;4.394;2023-03-20T06:09:49;7.70;99.90
23540;DHT22;11947;50.810;4.394;2023-03-20T06:12:16;7.70;99.90
23540;DHT22;11947;50.810;4.394;2023-03-20T06:14:42;7.80;99.90
23540;DHT22;11947;50.810;4.394;2023-03-20T06:17:08;7.90;99.90
23540;DHT22;11947;50.810;4.394;2023-03-20T06:19:34;7.80;99.90
23540;DHT22;11947;50.810;4.394;2023-03-20T06:21:59;7.90;99.90
23540;DHT22;11947;50.810;4.394;2023-03-20T06:24:25;7.90;99.90
23540;DHT22;11947;50.810;4.394;2023-03-20T06:26:51;8.00;99.90
23540;DHT22;11947;50.810;4.394;2023-03-20T06:29:16;8.10;99.90
23540;DHT22;11947;50.810;4.394;2023-03-20T06:31:43;8.20;99.90
23540;DHT22;11947;50.810;4.394;2023-03-20T06:34:09;8.40;99.90
23540;DHT22;11947;50.810;4.394;2023-03-20T06:36:34;8.10;99.90
23540;DHT22;11947;50.810;4.394;2023-03-20T06:39:01;8.10;99.90
23540;DHT22;11947;50.810;4.394;2023-03-20T06:41:27;8.20;99.90
23540;DHT22;11947;50.810;4.394;2023-03-20T06:43:53;8.10;99.90
23540;DHT22;11947;50.810;4.394;2023-03-20T06:46:20;8.10;99.90
23540;DHT22;11947;50.810;4.394;2023-03-20T06:48:46;8.10;99.90
23540;DHT22;11947;50.810;4.394;2023-03-20T06:51:11;8.00;99.90
23540;DHT22;11947;50.810;4.394;2023-03-20T06:53:37;7.90;99.90
23540;DHT22;11947;50.810;4.394;2023-03-20T06:56:04;8.10;99.90
23540;DHT22;11947;50.810;4.394;2023-03-20T06:58:29;8.10;99.90
23540;DHT22;11947;50.810;4.394;2023-03-20T07:00:55;8.30;99.90
23540;DHT22;11947;50.810;4.394;2023-03-20T07:03:21;8.20;99.90
23540;DHT22;11947;50.810;4.394;2023-03-20T07:05:47;8.30;99.90
23540;DHT22;11947;50.810;4.394;2023-03-20T07:08:12;8.20;99.90
23540;DHT22;11947;50.810;4.394;2023-03-20T07:10:39;8.30;99.90
23540;DHT22;11947;50.810;4.394;2023-03-20T07:13:05;8.30;99.90
23540;DHT22;11947;50.810;4.394;2023-03-20T07:15:30;8.30;99.90
23540;DHT22;11947;50.810;4.394;2023-03-20T07:17:56;8.30;99.90
23540;DHT22;11947;50.810;4.394;2023-03-20T07:20:22;8.30;99.90
23540;DHT22;11947;50.810;4.394;2023-03-20T07:22:48;8.40;99.90
23540;DHT22;11947;50.810;4.394;2023-03-20T07:25:14;8.50;99.90
23540;DHT22;11947;50.810;4.394;2023-03-20T07:27:39;8.50;99.90
23540;DHT22;11947;50.810;4.394;2023-03-20T07:30:06;8.60;99.90
23540;DHT22;11947;50.810;4.394;2023-03-20T07:32:33;8.70;99.90
23540;DHT22;11947;50.810;4.394;2023-03-20T07:34:59;8.70;99.90
23540;DHT22;11947;50.810;4.394;2023-03-20T07:37:25;8.80;99.90
23540;DHT22;11947;50.810;4.394;2023-03-20T07:39:50;8.80;99.90
23540;DHT22;11947;50.810;4.394;2023-03-20T07:42:16;8.90;99.90
23540;DHT22;11947;50.810;4.394;2023-03-20T07:44:42;8.90;99.90
23540;DHT22;11947;50.810;4.394;2023-03-20T07:47:08;9.00;99.90
23540;DHT22;11947;50.810;4.394;2023-03-20T07:49:33;9.30;99.90
23540;DHT22;11947;50.810;4.394;2023-03-20T07:51:59;9.10;99.90
23540;DHT22;11947;50.810;4.394;2023-03-20T07:54:25;9.20;99.90
23540;DHT22;11947;50.810;4.394;2023-03-20T07:56:51;9.40;99.90
23540;DHT22;11947;50.810;4.394;2023-03-20T07:59:17;9.60;99.90
23540;DHT22;11947;50.810;4.394;2023-03-20T08:01:43;9.50;99.90
23540;DHT22;11947;50.810;4.394;2023-03-20T08:04:09;9.50;99.90
23540;DHT22;11947;50.810;4.394;2023-03-20T08:06:36;9.50;99.90
23540;DHT22;11947;50.810;4.394;2023-03-20T08:09:04;9.70;99.90
23540;DHT22;11947;50.810;4.394;2023-03-20T08:11:30;9.60;99.90
23540;DHT22;11947;50.810;4.394;2023-03-20T08:13:55;9.50;99.90
23540;DHT22;11947;50.810;4.394;2023-03-20T08:16:21;9.40;99.90
23540;DHT22;11947;50.810;4.394;2023-03-20T08:18:46;9.40;99.90
23540;DHT22;11947;50.810;4.394;2023-03-20T08:21:12;9.50;99.90
23540;DHT22;11947;50.810;4.394;2023-03-20T08:23:38;9.20;99.90
23540;DHT22;11947;50.810;4.394;2023-03-20T08:26:03;9.20;99.90
23540;DHT22;11947;50.810;4.394;2023-03-20T08:28:29;9.10;99.90
23540;DHT22;11947;50.810;4.394;2023-03-20T08:30:55;9.30;99.90
23540;DHT22;11947;50.810;4.394;2023-03-20T08:33:21;9.30;99.90
23540;DHT22;11947;50.810;4.394;2023-03-20T08:35:57;9.50;99.90
23540;DHT22;11947;50.810;4.394;2023-03-20T08:38:23;9.60;99.90
23540;DHT22;11947;50.810;4.394;2023-03-20T08:40:49;9.60;99.90
23540;DHT22;11947;50.810;4.394;2023-03-20T08:43:15;9.60;99.90
23540;DHT22;11947;50.810;4.394;2023-03-20T08:45:41;9.70;99.90
23540;DHT22;11947;50.810;4.394;2023-03-20T08:48:08;9.90;99.90
23540;DHT22;11947;50.810;4.394;2023-03-20T08:50:33;10.10;99.90
23540;DHT22;11947;50.810;4.394;2023-03-20T08:52:59;10.10;99.90
23540;DHT22;11947;50.810;4.394;2023-03-20T08:55:25;10.10;99.90
23540;DHT22;11947;50.810;4.394;2023-03-20T08:57:54;10.10;99.90
23540;DHT22;11947;50.810;4.394;2023-03-20T09:00:22;10.10;99.90
23540;DHT22;11947;50.810;4.394;2023-03-20T09:02:48;10.20;99.90
23540;DHT22;11947;50.810;4.394;2023-03-20T09:05:15;10.10;99.90
23540;DHT22;11947;50.810;4.394;2023-03-20T09:07:41;9.90;99.90
23540;DHT22;11947;50.810;4.394;2023-03-20T09:10:08;9.80;99.90
23540;DHT22;11947;50.810;4.394;2023-03-20T09:12:34;9.90;99.90
23540;DHT22;11947;50.810;4.394;2023-03-20T09:15:01;10.00;99.90
23540;DHT22;11947;50.810;4.394;2023-03-20T09:17:26;9.80;99.90
23540;DHT22;11947;50.810;4.394;2023-03-20T09:19:52;9.80;99.90
23540;DHT22;11947;50.810;4.394;2023-03-20T09:22:18;9.90;99.90
23540;DHT22;11947;50.810;4.394;2023-03-20T09:24:44;9.90;99.90
23540;DHT22;11947;50.810;4.394;2023-03-20T09:27:10;9.90;99.90
23540;DHT22;11947;50.810;4.394;2023-03-20T09:29:39;10.00;99.90
23540;DHT22;11947;50.810;4.394;2023-03-20T09:32:05;10.20;99.90
23540;DHT22;11947;50.810;4.394;2023-03-20T09:34:30;10.20;99.90
23540;DHT22;11947;50.810;4.394;2023-03-20T09:36:56;10.10;99.90
23540;DHT22;11947;50.810;4.394;2023-03-20T09:39:22;10.40;99.90
23540;DHT22;11947;50.810;4.394;2023-03-20T09:41:48;10.30;99.90
23540;DHT22;11947;50.810;4.394;2023-03-20T09:52:00;10.80;99.90
23540;DHT22;11947;50.810;4.394;2023-03-20T09:54:28;11.00;99.90
23540;DHT22;11947;50.810;4.394;2023-03-20T09:56:56;11.50;99.90
23540;DHT22;11947;50.810;4.394;2023-03-20T09:59:24;11.70;99.90
23540;DHT22;11947;50.810;4.394;2023-03-20T10:01:57;11.80;99.90
23540;DHT22;11947;50.810;4.394;2023-03-20T10:04:26;12.00;99.90
23540;DHT22;11947;50.810;4.394;2023-03-20T10:06:53;11.90;99.90
23540;DHT22;11947;50.810;4.394;2023-03-20T10:09:25;12.10;99.90
23540;DHT22;11947;50.810;4.394;2023-03-20T10:14:57;12.20;99.90
23540;DHT22;11947;50.810;4.394;2023-03-20T10:22:44;12.30;99.90
23540;DHT22;11947;50.810;4.394;2023-03-20T10:25:31;12.40;99.90
23540;DHT22;11947;50.810;4.394;2023-03-20T10:28:10;12.30;99.90
23540;DHT22;11947;50.810;4.394;2023-03-20T10:31:08;12.50;99.90
23540;DHT22;11947;50.810;4.394;2023-03-20T10:42:16;13.60;99.90
23540;DHT22;11947;50.810;4.394;2023-03-20T10:44:49;13.90;99.90
23540;DHT22;11947;50.810;4.394;2023-03-20T10:47:18;13.70;99.90
23540;DHT22;11947;50.810;4.394;2023-03-20T10:49:53;13.70;99.90
23540;DHT22;11947;50.810;4.394;2023-03-20T10:52:24;13.60;99.90
23540;DHT22;11947;50.810;4.394;2023-03-20T10:54:55;13.60;99.90
23540;DHT22;11947;50.810;4.394;2023-03-20T10:57:24;13.40;99.90
23540;DHT22;11947;50.810;4.394;2023-03-20T10:59:53;13.70;99.90
23540;DHT22;11947;50.810;4.394;2023-03-20T11:02:21;13.80;99.90
23540;DHT22;11947;50.810;4.394;2023-03-20T11:04:48;13.60;99.90
23540;DHT22;11947;50.810;4.394;2023-03-20T11:07:31;13.80;99.90
23540;DHT22;11947;50.810;4.394;2023-03-20T11:12:41;14.00;99.90
23540;DHT22;11947;50.810;4.394;2023-03-20T11:15:23;13.90;99.90
23540;DHT22;11947;50.810;4.394;2023-03-20T11:17:57;13.70;99.90
23540;DHT22;11947;50.810;4.394;2023-03-20T11:20:25;13.70;99.90
23540;DHT22;11947;50.810;4.394;2023-03-20T11:22:57;14.00;99.90
23540;DHT22;11947;50.810;4.394;2023-03-20T11:25:37;14.20;99.90
23540;DHT22;11947;50.810;4.394;2023-03-20T11:28:29;14.40;99.90
23540;DHT22;11947;50.810;4.394;2023-03-20T11:31:19;14.30;99.90
23540;DHT22;11947;50.810;4.394;2023-03-20T11:38:45;14.20;99.90
23540;DHT22;11947;50.810;4.394;2023-03-20T11:41:22;14.30;99.90
23540;DHT22;11947;50.810;4.394;2023-03-20T11:43:48;14.60;99.90
23540;DHT22;11947;50.810;4.394;2023-03-20T11:46:13;15.00;99.90
23540;DHT22;11947;50.810;4.394;2023-03-20T11:48:42;16.00;99.90
23540;DHT22;11947;50.810;4.394;2023-03-20T11:51:18;16.70;99.90
23540;DHT22;11947;50.810;4.394;2023-03-20T11:56:25;17.00;99.90
23540;DHT22;11947;50.810;4.394;2023-03-20T11:59:12;17.00;99.90
23540;DHT22;11947;50.810;4.394;2023-03-20T12:01:39;16.90;99.90
23540;DHT22;11947;50.810;4.394;2023-03-20T12:04:24;16.60;99.90
23540;DHT22;11947;50.810;4.394;2023-03-20T12:07:11;16.10;99.90
23540;DHT22;11947;50.810;4.394;2023-03-20T12:09:54;16.10;99.90
23540;DHT22;11947;50.810;4.394;2023-03-20T12:12:41;15.80;99.90
23540;DHT22;11947;50.810;4.394;2023-03-20T12:15:26;16.10;99.90
23540;DHT22;11947;50.810;4.394;2023-03-20T12:17:56;18.50;99.90
23540;DHT22;11947;50.810;4.394;2023-03-20T12:26:03;23.90;99.90
23540;DHT22;11947;50.810;4.394;2023-03-20T12:31:45;24.10;99.90
23540;DHT22;11947;50.810;4.394;2023-03-20T12:34:19;24.10;99.90
23540;DHT22;11947;50.810;4.394;2023-03-20T12:36:48;24.60;99.90
23540;DHT22;11947;50.810;4.394;2023-03-20T12:39:19;24.40;98.50
23540;DHT22;11947;50.810;4.394;2023-03-20T12:44:49;26.00;96.50
23540;DHT22;11947;50.810;4.394;2023-03-20T13:00:46;23.70;96.90
23540;DHT22;11947;50.810;4.394;2023-03-20T13:06:44;22.70;97.10
23540;DHT22;11947;50.810;4.394;2023-03-20T13:09:21;21.40;99.20
23540;DHT22;11947;50.810;4.394;2023-03-20T13:26:23;18.30;99.90
23540;DHT22;11947;50.810;4.394;2023-03-20T13:28:54;17.50;99.90
23540;DHT22;11947;50.810;4.394;2023-03-20T13:31:53;17.20;99.90
23540;DHT22;11947;50.810;4.394;2023-03-20T13:37:12;16.40;99.90
23540;DHT22;11947;50.810;4.394;2023-03-20T13:40:13;15.90;99.90
23540;DHT22;11947;50.810;4.394;2023-03-20T13:42:54;15.70;99.90
23540;DHT22;11947;50.810;4.394;2023-03-20T13:48:32;15.10;99.90
23540;DHT22;11947;50.810;4.394;2023-03-20T13:51:20;14.90;99.90
23540;DHT22;11947;50.810;4.394;2023-03-20T13:59:26;14.70;99.90
23540;DHT22;11947;50.810;4.394;2023-03-20T14:02:04;14.70;99.90
23540;DHT22;11947;50.810;4.394;2023-03-20T14:04:33;14.70;99.90
23540;DHT22;11947;50.810;4.394;2023-03-20T14:06:59;14.70;99.90
23540;DHT22;11947;50.810;4.394;2023-03-20T14:09:36;14.60;99.90
23540;DHT22;11947;50.810;4.394;2023-03-20T14:12:09;14.50;99.90
23540;DHT22;11947;50.810;4.394;2023-03-20T14:14:54;14.40;99.90
23540;DHT22;11947;50.810;4.394;2023-03-20T14:17:28;14.20;99.90
23540;DHT22;11947;50.810;4.394;2023-03-20T14:19:56;14.00;99.90
23540;DHT22;11947;50.810;4.394;2023-03-20T14:22:33;13.90;99.90
23540;DHT22;11947;50.810;4.394;2023-03-20T14:25:15;14.10;99.90
23540;DHT22;11947;50.810;4.394;2023-03-20T14:28:21;14.10;99.90
23540;DHT22;11947;50.810;4.394;2023-03-20T14:30:49;14.10;99.90
23540;DHT22;11947;50.810;4.394;2023-03-20T14:36:10;14.10;99.90
23540;DHT22;11947;50.810;4.394;2023-03-20T14:39:04;14.10;99.90
23540;DHT22;11947;50.810;4.394;2023-03-20T14:41:58;14.10;99.90
23540;DHT22;11947;50.810;4.394;2023-03-20T14:47:24;14.10;99.90
23540;DHT22;11947;50.810;4.394;2023-03-20T14:50:02;14.30;99.90
23540;DHT22;11947;50.810;4.394;2023-03-20T14:57:44;14.20;99.90
23540;DHT22;11947;50.810;4.394;2023-03-20T15:00:20;14.20;99.90
23540;DHT22;11947;50.810;4.394;2023-03-20T15:05:29;14.00;99.90
23540;DHT22;11947;50.810;4.394;2023-03-20T15:07:57;14.10;99.90
23540;DHT22;11947;50.810;4.394;2023-03-20T15:10:26;14.10;99.90
23540;DHT22;11947;50.810;4.394;2023-03-20T15:12:53;14.10;99.90
23540;DHT22;11947;50.810;4.394;2023-03-20T15:15:26;14.00;99.90
23540;DHT22;11947;50.810;4.394;2023-03-20T15:17:51;14.00;99.90
23540;DHT22;11947;50.810;4.394;2023-03-20T15:20:23;13.80;99.90
23540;DHT22;11947;50.810;4.394;2023-03-20T15:22:57;13.80;99.90
23540;DHT22;11947;50.810;4.394;2023-03-20T15:25:28;13.80;99.90
23540;DHT22;11947;50.810;4.394;2023-03-20T15:27:55;13.70;99.90
23540;DHT22;11947;50.810;4.394;2023-03-20T15:30:21;13.60;99.90
23540;DHT22;11947;50.810;4.394;2023-03-20T15:32:48;13.50;99.90
23540;DHT22;11947;50.810;4.394;2023-03-20T15:35:22;13.60;99.90
23540;DHT22;11947;50.810;4.394;2023-03-20T15:37:51;13.30;99.90
23540;DHT22;11947;50.810;4.394;2023-03-20T15:43:13;13.20;99.90
23540;DHT22;11947;50.810;4.394;2023-03-20T15:45:41;13.10;99.90
23540;DHT22;11947;50.810;4.394;2023-03-20T15:48:11;13.20;99.90
23540;DHT22;11947;50.810;4.394;2023-03-20T15:50:39;13.00;99.90
23540;DHT22;11947;50.810;4.394;2023-03-20T15:53:07;13.10;99.90
23540;DHT22;11947;50.810;4.394;2023-03-20T15:55:36;13.30;99.90
23540;DHT22;11947;50.810;4.394;2023-03-20T15:58:03;13.20;99.90
23540;DHT22;11947;50.810;4.394;2023-03-20T16:00:31;13.10;99.90
23540;DHT22;11947;50.810;4.394;2023-03-20T16:03:00;13.30;99.90
23540;DHT22;11947;50.810;4.394;2023-03-20T16:05:29;13.30;99.90
23540;DHT22;11947;50.810;4.394;2023-03-20T16:07:56;13.10;99.90
23540;DHT22;11947;50.810;4.394;2023-03-20T16:10:33;13.10;99.90
23540;DHT22;11947;50.810;4.394;2023-03-20T16:13:03;13.30;99.90
23540;DHT22;11947;50.810;4.394;2023-03-20T16:15:32;13.20;99.90
23540;DHT22;11947;50.810;4.394;2023-03-20T16:18:00;13.20;99.90
23540;DHT22;11947;50.810;4.394;2023-03-20T16:20:29;13.30;99.90
23540;DHT22;11947;50.810;4.394;2023-03-20T16:23:03;13.40;99.90
23540;DHT22;11947;50.810;4.394;2023-03-20T16:25:30;13.40;99.90
23540;DHT22;11947;50.810;4.394;2023-03-20T16:27:56;13.30;99.90
23540;DHT22;11947;50.810;4.394;2023-03-20T16:30:25;13.40;99.90
23540;DHT22;11947;50.810;4.394;2023-03-20T16:33:00;13.40;99.90
23540;DHT22;11947;50.810;4.394;2023-03-20T16:35:36;13.50;99.90
23540;DHT22;11947;50.810;4.394;2023-03-20T16:38:12;13.40;99.90
23540;DHT22;11947;50.810;4.394;2023-03-20T16:40:38;13.40;99.90
23540;DHT22;11947;50.810;4.394;2023-03-20T16:43:16;13.30;99.90
23540;DHT22;11947;50.810;4.394;2023-03-20T16:45:44;13.20;99.90
23540;DHT22;11947;50.810;4.394;2023-03-20T16:50:43;13.10;99.90
23540;DHT22;11947;50.810;4.394;2023-03-20T16:53:14;13.10;99.90
23540;DHT22;11947;50.810;4.394;2023-03-20T16:55:46;12.90;99.90
23540;DHT22;11947;50.810;4.394;2023-03-20T16:58:22;12.90;99.90
23540;DHT22;11947;50.810;4.394;2023-03-20T17:03:33;12.90;99.90
23540;DHT22;11947;50.810;4.394;2023-03-20T17:09:00;12.80;99.90
23540;DHT22;11947;50.810;4.394;2023-03-20T17:11:30;12.70;99.90
23540;DHT22;11947;50.810;4.394;2023-03-20T17:13:57;12.70;99.90
23540;DHT22;11947;50.810;4.394;2023-03-20T17:16:24;12.60;99.90
23540;DHT22;11947;50.810;4.394;2023-03-20T17:19:04;12.70;99.90
23540;DHT22;11947;50.810;4.394;2023-03-20T17:21:31;12.70;99.90
23540;DHT22;11947;50.810;4.394;2023-03-20T17:23:57;12.70;99.90
23540;DHT22;11947;50.810;4.394;2023-03-20T17:26:24;12.70;99.90
23540;DHT22;11947;50.810;4.394;2023-03-20T17:28:50;12.70;99.90
23540;DHT22;11947;50.810;4.394;2023-03-20T17:31:16;12.60;99.90
23540;DHT22;11947;50.810;4.394;2023-03-20T17:33:43;12.60;99.90
23540;DHT22;11947;50.810;4.394;2023-03-20T17:36:30;12.40;99.90
23540;DHT22;11947;50.810;4.394;2023-03-20T17:38:57;12.30;99.90
23540;DHT22;11947;50.810;4.394;2023-03-20T17:41:24;12.30;99.90
23540;DHT22;11947;50.810;4.394;2023-03-20T17:43:50;12.20;99.90
23540;DHT22;11947;50.810;4.394;2023-03-20T17:46:29;12.10;99.90
23540;DHT22;11947;50.810;4.394;2023-03-20T17:49:01;12.10;99.90
23540;DHT22;11947;50.810;4.394;2023-03-20T17:51:27;12.20;99.90
23540;DHT22;11947;50.810;4.394;2023-03-20T17:53:53;12.20;99.90
23540;DHT22;11947;50.810;4.394;2023-03-20T17:56:23;12.10;99.90
23540;DHT22;11947;50.810;4.394;2023-03-20T17:58:49;12.10;99.90
23540;DHT22;11947;50.810;4.394;2023-03-20T18:01:15;12.10;99.90
23540;DHT22;11947;50.810;4.394;2023-03-20T18:03:41;12.20;99.90
23540;DHT22;11947;50.810;4.394;2023-03-20T18:06:19;12.10;99.90
23540;DHT22;11947;50.810;4.394;2023-03-20T18:08:46;12.00;99.90
23540;DHT22;11947;50.810;4.394;2023-03-20T18:11:12;11.90;99.90
23540;DHT22;11947;50.810;4.394;2023-03-20T18:13:37;11.70;99.90
23540;DHT22;11947;50.810;4.394;2023-03-20T18:16:03;11.80;99.90
23540;DHT22;11947;50.810;4.394;2023-03-20T18:18:30;11.80;99.90
23540;DHT22;11947;50.810;4.394;2023-03-20T18:20:57;11.80;99.90